Time;durP1;ratioP1;P1;durP2;ratioP2;P2;SDS_P1;SDS_P2;PMS_P1;PMS_P2;Temp;Humidity;BMP_temperature;BMP_pressure;BME280_temperature;BME280_humidity;BME280_pressure;Samples;Min_cycle;Max_cycle;Signal;HPM_P1;HPM_P2
2022/08/22 00:00:23;;;;;;;8.67;2.90;;;20.70;1.00;;;;;;5082655;28;20188;-85
2022/08/22 00:06:54;;;;;;;5.63;2.70;;;20.60;1.00;;;;;;5094653;28;20156;-85
2022/08/22 00:13:06;;;;;;;7.63;2.93;;;20.60;1.00;;;;;;5081194;28;20199;-85
2022/08/22 00:16:04;;;;;;;9.00;2.87;;;20.70;1.00;;;;;;5083579;28;20160;-85
2022/08/22 00:18:51;;;;;;;9.57;3.17;;;20.70;1.00;;;;;;5080273;28;20182;-86
2022/08/22 00:21:35;;;;;;;9.57;3.67;;;20.90;1.00;;;;;;5076558;28;20197;-86
2022/08/22 00:27:32;;;;;;;7.37;2.83;;;20.80;1.00;;;;;;5099001;28;20178;-85
2022/08/22 00:30:11;;;;;;;6.47;2.80;;;20.80;1.00;;;;;;5100166;28;20145;-85
2022/08/22 00:32:49;;;;;;;7.87;3.00;;;20.80;1.00;;;;;;5100046;28;20185;-86
2022/08/22 00:35:38;;;;;;;10.50;3.27;;;20.70;1.00;;;;;;5079515;28;20213;-84
2022/08/22 00:38:11;;;;;;;9.37;2.90;;;20.70;1.00;;;;;;5074840;28;20628;-86
2022/08/22 00:41:17;;;;;;;9.00;3.77;;;20.70;1.00;;;;;;5063419;28;20227;-86
2022/08/22 00:44:07;;;;;;;8.00;3.00;;;20.60;1.00;;;;;;5081759;28;20682;-86
2022/08/22 00:53:50;;;;;;;7.03;2.73;;;20.70;1.00;;;;;;5078265;28;20553;-86
2022/08/22 00:56:43;;;;;;;9.17;3.00;;;20.70;1.00;;;;;;5059494;28;20566;-85
2022/08/22 00:59:28;;;;;;;11.47;3.30;;;20.80;1.00;;;;;;5059573;28;20723;-86
2022/08/22 01:02:21;;;;;;;7.57;3.60;;;20.80;1.00;;;;;;5059292;28;20230;-85
2022/08/22 01:12:13;;;;;;;9.67;3.50;;;20.50;1.00;;;;;;5077474;28;20163;-86
2022/08/22 01:14:58;;;;;;;5.40;2.97;;;20.50;1.00;;;;;;4976014;28;20245;-86
2022/08/22 01:17:46;;;;;;;7.87;2.90;;;20.40;1.00;;;;;;5072937;28;20188;-86
2022/08/22 01:20:45;;;;;;;7.50;3.17;;;20.40;1.00;;;;;;5092600;28;20165;-85
2022/08/22 01:23:50;;;;;;;7.37;2.90;;;20.40;1.00;;;;;;5094448;28;20199;-86
2022/08/22 01:30:19;;;;;;;7.33;3.10;;;20.50;1.00;;;;;;5076991;28;20202;-86
2022/08/22 01:33:32;;;;;;;12.30;3.10;;;20.50;1.00;;;;;;5080866;28;20192;-86
2022/08/22 01:36:39;;;;;;;6.50;2.80;;;20.50;1.00;;;;;;5061298;28;20198;-86
2022/08/22 01:42:57;;;;;;;8.77;3.50;;;20.70;1.00;;;;;;5079657;28;20528;-86
2022/08/22 01:46:04;;;;;;;9.40;3.03;;;20.70;1.00;;;;;;5061776;28;20180;-86
2022/08/22 01:49:11;;;;;;;11.47;7.47;;;20.80;1.00;;;;;;5081558;28;20230;-86
2022/08/22 01:51:47;;;;;;;7.13;2.90;;;20.90;1.00;;;;;;5078837;28;20213;-85
2022/08/22 01:54:30;;;;;;;9.57;3.20;;;20.90;1.00;;;;;;5059185;28;20216;-86
2022/08/22 02:00:22;;;;;;;9.30;2.93;;;21.10;1.00;;;;;;5077816;28;20712;-85
2022/08/22 02:03:43;;;;;;;6.23;2.70;;;21.00;1.00;;;;;;5060771;28;20651;-86
2022/08/22 02:07:02;;;;;;;11.00;3.60;;;21.00;1.00;;;;;;5060210;28;20176;-85
2022/08/22 02:13:06;;;;;;;7.67;3.30;;;20.90;1.00;;;;;;5077702;28;20166;-85
2022/08/22 02:16:20;;;;;;;7.87;3.10;;;20.90;1.00;;;;;;5095550;28;20172;-86
2022/08/22 02:19:11;;;;;;;9.37;3.20;;;20.90;1.00;;;;;;5097801;28;20243;-86
2022/08/22 02:22:03;;;;;;;9.13;3.10;;;21.00;1.00;;;;;;5097373;28;20174;-86
2022/08/22 02:24:56;;;;;;;7.80;3.47;;;21.10;1.00;;;;;;5097427;28;20168;-87
2022/08/22 02:28:03;;;;;;;8.83;3.03;;;21.20;1.00;;;;;;5095292;28;20161;-88
2022/08/22 02:31:02;;;;;;;8.50;2.90;;;21.30;1.00;;;;;;5078192;28;20228;-89
2022/08/22 02:34:02;;;;;;;7.27;2.80;;;21.50;1.00;;;;;;5096381;28;20219;-88
2022/08/22 02:40:38;;;;;;;8.13;3.40;;;21.50;1.00;;;;;;5097263;28;20157;-86
2022/08/22 02:43:51;;;;;;;5.87;2.80;;;21.30;1.00;;;;;;5097471;28;20180;-86
2022/08/22 02:47:03;;;;;;;7.67;3.23;;;21.00;1.00;;;;;;5095460;28;20177;-86
2022/08/22 02:50:27;;;;;;;7.33;3.13;;;21.00;1.00;;;;;;5077495;28;20193;-86
2022/08/22 02:53:51;;;;;;;6.77;2.80;;;21.10;1.00;;;;;;5096965;28;20176;-85
2022/08/22 02:57:04;;;;;;;9.93;3.60;;;21.20;1.00;;;;;;5097916;28;20203;-86
2022/08/22 02:59:56;;;;;;;8.53;3.37;;;21.40;1.00;;;;;;5097310;28;20160;-85
2022/08/22 03:03:03;;;;;;;7.50;3.10;;;21.20;1.00;;;;;;5098023;28;20159;-85
2022/08/22 03:09:15;;;;;;;9.03;3.30;;;21.30;1.00;;;;;;5040450;28;20164;-86
2022/08/22 03:12:06;;;;;;;7.60;2.90;;;21.10;1.00;;;;;;5082960;28;20187;-85
2022/08/22 03:14:43;;;;;;;7.40;3.00;;;21.20;1.00;;;;;;5069488;28;20205;-85
2022/08/22 03:17:38;;;;;;;7.07;2.83;;;21.20;1.00;;;;;;5083386;28;20191;-85
2022/08/22 03:23:48;;;;;;;8.97;2.73;;;21.10;1.00;;;;;;5101812;28;20220;-84
2022/08/22 03:27:00;;;;;;;9.60;3.20;;;21.20;1.00;;;;;;5084810;28;20182;-85
2022/08/22 03:29:51;;;;;;;9.33;3.03;;;21.20;1.00;;;;;;5099929;28;20160;-86
2022/08/22 03:35:54;;;;;;;7.23;3.20;;;20.80;1.00;;;;;;5100393;28;20181;-86
2022/08/22 03:42:21;;;;;;;8.47;2.90;;;21.00;1.00;;;;;;5098610;28;20201;-86
2022/08/22 03:45:25;;;;;;;6.17;2.90;;;21.10;1.00;;;;;;5088507;28;20179;-86
2022/08/22 03:52:07;;;;;;;7.60;3.20;;;21.20;99.90;;;;;;5078984;28;20159;-86
2022/08/22 03:55:14;;;;;;;7.93;2.80;;;21.40;99.90;;;;;;5044424;28;20213;-87
2022/08/22 03:58:22;;;;;;;9.50;3.07;;;21.20;99.90;;;;;;5077151;28;20268;-86
2022/08/22 04:01:25;;;;;;;10.17;3.00;;;21.20;99.90;;;;;;5076899;28;20174;-86
2022/08/22 04:04:35;;;;;;;9.10;3.00;;;21.20;99.90;;;;;;5059160;28;20185;-86
2022/08/22 04:07:39;;;;;;;8.83;3.23;;;21.10;99.90;;;;;;5077285;28;20178;-86
2022/08/22 04:14:37;;;;;;;10.17;2.90;;;21.00;1.00;;;;;;5098992;28;20231;-87
2022/08/22 04:17:37;;;;;;;8.13;2.77;;;21.00;99.90;;;;;;5078394;28;20174;-86
2022/08/22 04:31:02;;;;;;;8.27;2.70;;;21.10;99.90;;;;;;4996997;28;20235;-88
2022/08/22 04:34:19;;;;;;;9.97;2.87;;;21.00;99.90;;;;;;4994011;28;20216;-87
2022/08/22 04:37:08;;;;;;;7.53;2.70;;;20.90;99.90;;;;;;4993309;28;20746;-87
2022/08/22 04:40:21;;;;;;;10.67;3.00;;;20.80;99.90;;;;;;5054713;28;20189;-85
2022/08/22 04:43:23;;;;;;;7.40;2.83;;;20.80;1.00;;;;;;5024635;28;20278;-85
2022/08/22 04:46:27;;;;;;;7.10;3.00;;;21.00;99.90;;;;;;5039133;28;20182;-86
2022/08/22 04:49:14;;;;;;;6.87;2.90;;;21.00;1.00;;;;;;5021390;28;20249;-86
2022/08/22 04:55:28;;;;;;;8.07;3.30;;;21.10;99.90;;;;;;5042496;28;20250;-86
2022/08/22 05:02:06;;;;;;;11.97;4.30;;;21.10;99.90;;;;;;5067207;28;20242;-87
2022/08/22 05:04:44;;;;;;;10.83;2.77;;;21.00;99.90;;;;;;5067095;28;20614;-86
2022/08/22 05:07:59;;;;;;;9.27;4.40;;;21.00;99.90;;;;;;5064237;28;20269;-85
2022/08/22 05:13:55;;;;;;;8.40;4.57;;;21.40;99.90;;;;;;5088695;28;20290;-85
2022/08/22 05:16:38;;;;;;;11.17;4.60;;;21.30;99.90;;;;;;5087892;28;20206;-84
2022/08/22 05:19:49;;;;;;;8.03;2.90;;;21.30;99.90;;;;;;5091836;28;20636;-85
2022/08/22 05:25:41;;;;;;;14.53;3.70;;;21.00;99.90;;;;;;5093285;28;20190;-85
2022/08/22 05:28:38;;;;;;;10.13;3.67;;;21.10;1.00;;;;;;5075747;28;20190;-85
2022/08/22 05:31:30;;;;;;;9.33;3.27;;;21.00;1.00;;;;;;5089793;28;20667;-86
2022/08/22 05:37:39;;;;;;;11.73;3.70;;;20.70;1.00;;;;;;5085099;28;20172;-86
2022/08/22 05:40:48;;;;;;;11.87;4.00;;;20.70;1.00;;;;;;5064408;28;20206;-86
2022/08/22 05:43:19;;;;;;;14.77;3.70;;;20.70;1.00;;;;;;5078679;28;20165;-87
2022/08/22 05:45:50;;;;;;;8.47;4.10;;;20.70;1.00;;;;;;5058216;28;20178;-86
2022/08/22 05:48:43;;;;;;;12.80;4.30;;;20.60;1.00;;;;;;5075705;28;20175;-86
2022/08/22 05:51:25;;;;;;;15.07;4.80;;;20.60;1.00;;;;;;5054923;28;20185;-86
2022/08/22 05:54:09;;;;;;;12.87;4.10;;;20.50;1.00;;;;;;5070226;28;20211;-85
2022/08/22 05:56:46;;;;;;;12.20;3.93;;;20.40;1.00;;;;;;5079649;28;20205;-86
2022/08/22 05:59:34;;;;;;;12.27;3.90;;;20.30;1.00;;;;;;5098753;28;20168;-86
2022/08/22 06:02:11;;;;;;;9.60;3.87;;;20.30;1.00;;;;;;5080837;28;20242;-86
2022/08/22 06:05:01;;;;;;;12.10;3.83;;;20.10;1.00;;;;;;5080453;28;20169;-87
2022/08/22 06:08:06;;;;;;;12.00;4.20;;;20.00;1.00;;;;;;5080652;28;20178;-91
2022/08/22 06:11:04;;;;;;;12.33;4.23;;;20.00;1.00;;;;;;5079970;28;20174;-86
2022/08/22 06:14:23;;;;;;;7.80;3.80;;;20.00;1.00;;;;;;5081396;28;20166;-86
2022/08/22 06:17:10;;;;;;;10.60;4.20;;;20.10;1.00;;;;;;5081169;28;20218;-87
2022/08/22 06:20:11;;;;;;;9.67;3.73;;;20.20;1.00;;;;;;5080871;28;20191;-86
2022/08/22 06:23:00;;;;;;;9.93;4.40;;;20.40;1.00;;;;;;5080989;28;20170;-88
2022/08/22 06:26:00;;;;;;;11.03;4.20;;;20.50;1.00;;;;;;5098731;28;20179;-87
2022/08/22 06:29:11;;;;;;;12.07;3.40;;;20.60;1.00;;;;;;5098470;28;20172;-90
2022/08/22 06:35:18;;;;;;;10.30;3.93;;;20.70;1.00;;;;;;5098322;28;20198;-88
2022/08/22 06:41:44;;;;;;;7.90;3.90;;;20.70;1.00;;;;;;5097691;28;20200;-86
2022/08/22 06:44:43;;;;;;;10.87;4.30;;;20.80;1.00;;;;;;5098388;28;20166;-88
2022/08/22 06:47:44;;;;;;;10.60;3.47;;;20.90;1.00;;;;;;5080811;28;20171;-87
2022/08/22 06:50:57;;;;;;;8.73;3.53;;;20.90;1.00;;;;;;5080381;28;20170;-87
2022/08/22 06:53:44;;;;;;;9.73;3.73;;;20.90;1.00;;;;;;5069338;28;20184;-86
2022/08/22 06:56:50;;;;;;;9.37;3.50;;;20.90;1.00;;;;;;5083791;28;20546;-86
2022/08/22 06:59:27;;;;;;;11.77;4.00;;;21.00;1.00;;;;;;5066810;28;20196;-86
2022/08/22 07:02:28;;;;;;;8.30;3.50;;;20.90;1.00;;;;;;5085087;28;20251;-88
2022/08/22 07:05:44;;;;;;;9.17;3.80;;;21.00;1.00;;;;;;5042854;28;20181;-86
2022/08/22 07:08:42;;;;;;;12.23;3.67;;;21.10;1.00;;;;;;5075038;28;20189;-86
2022/08/22 07:11:27;;;;;;;17.70;4.40;;;21.20;1.00;;;;;;5078307;28;20229;-86
2022/08/22 07:14:16;;;;;;;14.23;4.60;;;21.20;1.00;;;;;;5081157;28;20299;-85
2022/08/22 07:17:03;;;;;;;14.10;4.90;;;21.10;1.00;;;;;;5046207;28;20556;-86
2022/08/22 07:20:04;;;;;;;11.40;4.47;;;21.00;1.00;;;;;;5077345;28;20213;-85
2022/08/22 07:22:36;;;;;;;11.70;4.43;;;21.00;1.00;;;;;;5007064;28;20178;-85
2022/08/22 07:25:17;;;;;;;12.60;4.77;;;21.00;1.00;;;;;;4998268;28;20603;-86
2022/08/22 07:28:21;;;;;;;15.47;5.27;;;21.00;1.00;;;;;;5000632;28;20174;-86
2022/08/22 07:31:20;;;;;;;12.77;4.63;;;21.10;1.00;;;;;;5013321;28;20596;-86
2022/08/22 07:33:59;;;;;;;9.93;4.17;;;21.20;1.00;;;;;;5022967;28;20703;-85
2022/08/22 07:37:02;;;;;;;14.17;5.57;;;21.30;1.00;;;;;;5075739;28;20537;-85
2022/08/22 07:43:42;;;;;;;13.40;4.83;;;21.60;1.00;;;;;;5075672;28;20242;-86
2022/08/22 07:46:40;;;;;;;14.87;4.53;;;21.70;1.00;;;;;;5012167;28;20186;-87
2022/08/22 07:53:07;;;;;;;11.03;3.97;;;21.60;1.00;;;;;;5038401;28;20201;-87
2022/08/22 07:56:45;;;;;;;9.83;4.00;;;21.50;1.00;;;;;;5039106;28;20202;-87
2022/08/22 08:00:00;;;;;;;14.13;4.47;;;21.50;1.00;;;;;;5032564;28;20214;-87
2022/08/22 08:03:02;;;;;;;12.97;4.30;;;21.60;1.00;;;;;;5034348;28;20222;-87
2022/08/22 08:05:59;;;;;;;12.07;4.17;;;21.70;1.00;;;;;;5035991;28;20210;-87
2022/08/22 08:09:05;;;;;;;11.93;4.53;;;21.70;1.00;;;;;;5031991;28;20198;-87
2022/08/22 08:12:08;;;;;;;11.57;4.20;;;21.60;1.00;;;;;;5018097;28;20278;-87
2022/08/22 08:14:42;;;;;;;9.63;3.37;;;21.60;1.00;;;;;;5003195;28;20202;-87
2022/08/22 08:17:53;;;;;;;12.37;6.00;;;21.60;1.00;;;;;;5077932;28;20157;-87
2022/08/22 08:23:53;;;;;;;7.17;3.57;;;21.80;99.90;;;;;;5074961;28;20192;-86
2022/08/22 08:30:16;;;;;;;9.43;3.60;;;21.90;99.90;;;;;;5064392;28;20200;-87
2022/08/22 08:36:47;;;;;;;9.93;3.80;;;22.10;99.90;;;;;;5078561;28;20201;-87
2022/08/22 08:43:35;;;;;;;11.50;4.00;;;22.20;99.90;;;;;;5079967;28;20161;-88
2022/08/22 08:46:51;;;;;;;13.10;4.30;;;22.20;99.90;;;;;;4980490;28;20182;-87
2022/08/22 08:49:58;;;;;;;9.23;3.93;;;22.30;99.90;;;;;;4974116;29;20277;-88
2022/08/22 08:53:05;;;;;;;9.27;3.90;;;22.30;99.90;;;;;;4977216;29;20194;-86
2022/08/22 08:56:38;;;;;;;11.83;3.43;;;22.30;99.90;;;;;;5032118;28;20225;-86
2022/08/22 08:59:49;;;;;;;8.13;3.57;;;22.30;99.90;;;;;;5053481;28;20526;-86
2022/08/22 09:02:32;;;;;;;9.83;3.73;;;22.40;99.90;;;;;;5054060;28;20191;-87
2022/08/22 09:06:02;;;;;;;9.17;3.67;;;22.40;99.90;;;;;;5062096;28;20163;-86
2022/08/22 09:08:56;;;;;;;10.03;3.47;;;22.50;99.90;;;;;;4998137;28;20164;-86
2022/08/22 09:12:05;;;;;;;8.97;3.60;;;22.70;99.90;;;;;;5042905;28;20269;-87
2022/08/22 09:18:02;;;;;;;8.77;3.50;;;23.00;36.40;;;;;;5071015;28;20201;-86
2022/08/22 09:20:50;;;;;;;7.30;3.23;;;23.30;25.20;;;;;;5069851;28;20176;-86
2022/08/22 09:23:33;;;;;;;7.73;3.13;;;23.20;1.00;;;;;;5043910;28;20722;-87
2022/08/22 09:26:14;;;;;;;9.47;3.53;;;23.20;9.20;;;;;;5040748;28;20176;-87
2022/08/22 09:32:33;;;;;;;9.50;3.27;;;23.40;1.00;;;;;;5056988;28;20217;-87
2022/08/22 09:35:52;;;;;;;9.60;3.07;;;23.70;1.00;;;;;;4956265;29;20228;-87
2022/08/22 09:41:54;;;;;;;7.83;3.00;;;24.20;1.00;;;;;;4979125;28;20175;-86
2022/08/22 09:45:01;;;;;;;10.67;3.40;;;24.40;1.00;;;;;;4978809;28;20180;-88
2022/08/22 09:47:46;;;;;;;9.40;3.40;;;24.60;99.90;;;;;;4978290;28;20711;-86
2022/08/22 09:50:29;;;;;;;9.87;3.13;;;24.90;1.00;;;;;;4979298;28;20241;-86
2022/08/22 09:53:31;;;;;;;9.37;2.60;;;24.90;99.90;;;;;;5043828;28;20193;-85
2022/08/22 09:56:37;;;;;;;7.60;2.93;;;25.00;1.00;;;;;;5078932;28;20177;-87
2022/08/22 10:02:31;;;;;;;6.90;2.83;;;24.40;99.90;;;;;;5071662;28;20200;-86
2022/08/22 10:08:25;;;;;;;9.77;2.87;;;24.30;99.90;;;;;;5058050;28;20173;-88
2022/08/22 10:11:10;;;;;;;7.93;3.33;;;24.20;46.50;;;;;;5041377;28;20199;-88
2022/08/22 10:14:08;;;;;;;7.07;2.67;;;24.30;99.90;;;;;;5042013;28;20208;-87
2022/08/22 10:17:04;;;;;;;6.73;2.57;;;24.50;99.90;;;;;;5059996;28;20191;-87
2022/08/22 10:19:50;;;;;;;8.53;3.03;;;24.60;1.00;;;;;;5043313;28;20211;-87
2022/08/22 10:25:50;;;;;;;8.97;3.07;;;25.40;1.00;;;;;;5062874;28;20171;-87
2022/08/22 10:28:30;;;;;;;8.23;2.43;;;25.40;1.00;;;;;;5069564;28;20153;-85
2022/08/22 10:31:18;;;;;;;7.70;2.73;;;25.20;1.00;;;;;;5058612;28;20207;-87
2022/08/22 10:34:02;;;;;;;8.23;2.87;;;25.50;1.00;;;;;;5048970;28;20220;-86
2022/08/22 10:37:20;;;;;;;6.87;2.10;;;25.60;99.90;;;;;;5053911;28;20192;-86
2022/08/22 10:40:04;;;;;;;7.10;2.77;;;25.60;1.00;;;;;;5072793;28;20196;-86
2022/08/22 10:42:45;;;;;;;10.37;2.60;;;25.60;99.90;;;;;;5040369;28;20187;-86
2022/08/22 10:45:44;;;;;;;8.73;2.67;;;25.40;99.90;;;;;;5026240;28;20187;-86
2022/08/22 10:48:53;;;;;;;7.00;2.40;;;25.60;1.00;;;;;;5059507;28;20177;-86
2022/08/22 10:51:28;;;;;;;7.00;2.13;;;25.70;99.90;;;;;;5039819;28;20198;-86
2022/08/22 10:54:35;;;;;;;5.33;1.90;;;26.00;99.90;;;;;;5058135;28;20207;-87
2022/08/22 10:57:21;;;;;;;6.70;2.07;;;25.90;1.00;;;;;;5057376;28;20165;-87
2022/08/22 11:00:17;;;;;;;6.17;2.20;;;25.90;1.00;;;;;;5057359;28;20212;-87
2022/08/22 11:03:37;;;;;;;8.60;2.40;;;26.00;1.00;;;;;;5039574;28;20197;-87
2022/08/22 11:06:22;;;;;;;8.03;2.70;;;26.20;1.00;;;;;;5039710;28;20188;-87
2022/08/22 11:09:41;;;;;;;5.45;1.95;;;26.20;1.00;;;;;;5038555;28;20184;-87
2022/08/22 11:12:51;;;;;;;6.35;2.15;;;26.70;1.00;;;;;;5057089;28;20176;-87
2022/08/22 11:15:43;;;;;;;6.65;2.10;;;27.10;99.90;;;;;;5015082;28;20707;-87
2022/08/22 11:18:50;;;;;;;10.82;2.10;;;27.20;99.90;;;;;;5008026;28;20173;-87
2022/08/22 11:21:55;;;;;;;6.80;2.08;;;27.40;99.90;;;;;;5038769;28;20181;-87
2022/08/22 11:28:24;;;;;;;6.72;2.30;;;27.30;96.70;;;;;;5060389;28;20214;-87
2022/08/22 11:34:33;;;;;;;9.02;2.38;;;26.80;99.90;;;;;;5081377;28;20195;-86
2022/08/22 11:37:47;;;;;;;5.97;1.90;;;26.80;99.90;;;;;;5077637;28;20173;-87
2022/08/22 11:44:05;;;;;;;5.18;1.60;;;27.60;99.90;;;;;;5080574;28;20199;-86
2022/08/22 11:47:00;;;;;;;5.53;1.92;;;27.80;1.00;;;;;;5078175;28;20220;-86
2022/08/22 11:49:56;;;;;;;7.80;2.20;;;27.40;1.00;;;;;;5044990;28;20256;-86
2022/08/22 11:53:03;;;;;;;5.03;2.30;;;27.20;91.20;;;;;;5060791;28;20184;-85
2022/08/22 11:55:56;;;;;;;9.00;2.17;;;27.00;99.90;;;;;;5080129;28;20216;-85
2022/08/22 12:02:14;;;;;;;9.43;2.35;;;27.30;99.90;;;;;;5078985;28;20191;-86
2022/08/22 12:05:23;;;;;;;6.50;2.42;;;27.80;1.00;;;;;;5061347;28;20249;-86
2022/08/22 12:11:39;;;;;;;5.85;2.33;;;27.80;1.00;;;;;;5077065;28;20169;-86
2022/08/22 12:14:33;;;;;;;5.82;2.30;;;27.60;1.00;;;;;;5049863;28;20212;-86
2022/08/22 12:17:25;;;;;;;6.38;2.15;;;27.40;1.00;;;;;;5047386;28;20204;-88
2022/08/22 12:20:41;;;;;;;5.13;1.98;;;27.40;1.00;;;;;;5079196;28;20157;-88
2022/08/22 12:23:56;;;;;;;;;;;;;;;;;;;;;
2022/08/22 12:27:16;;;;;;;6.45;2.17;;;27.10;13.50;;;;;;5078072;28;20175;-88
2022/08/22 12:36:47;;;;;;;10.00;2.17;;;28.40;1.00;;;;;;5079503;28;20195;-87
2022/08/22 12:39:57;;;;;;;7.50;2.35;;;28.40;1.00;;;;;;5060632;28;20165;-87
2022/08/22 12:50:04;;;;;;;5.68;1.92;;;28.00;1.00;;;;;;5079578;28;20168;-86
2022/08/22 12:56:54;;;;;;;7.72;2.20;;;28.10;1.00;;;;;;5078851;28;20207;-86
2022/08/22 12:59:52;;;;;;;7.28;2.35;;;28.20;1.00;;;;;;5079752;28;20168;-86
2022/08/22 13:03:08;;;;;;;5.95;2.10;;;28.30;1.00;;;;;;5079499;28;20224;-88
2022/08/22 13:06:19;;;;;;;7.97;2.30;;;28.60;1.00;;;;;;5079319;28;20196;-87
2022/08/22 13:09:17;;;;;;;6.75;2.05;;;28.70;1.00;;;;;;5079233;28;20149;-89
2022/08/22 13:12:27;;;;;;;6.25;2.53;;;28.20;1.00;;;;;;5071075;28;20191;-87
2022/08/22 13:15:35;;;;;;;5.68;2.03;;;28.40;1.00;;;;;;5062282;28;20251;-88
2022/08/22 13:18:57;;;;;;;7.35;2.35;;;28.70;1.00;;;;;;5073792;28;20187;-87
2022/08/22 13:24:54;;;;;;;7.35;2.20;;;29.00;99.90;;;;;;5098579;28;20206;-88
2022/08/22 13:27:40;;;;;;;7.43;2.35;;;29.00;99.90;;;;;;5096744;28;20191;-87
2022/08/22 13:30:29;;;;;;;4.45;2.00;;;29.20;99.90;;;;;;5093471;28;20171;-87
2022/08/22 13:33:15;;;;;;;6.53;2.20;;;28.80;99.90;;;;;;5090091;28;20562;-87
2022/08/22 13:35:55;;;;;;;6.93;2.33;;;29.10;99.90;;;;;;5091563;28;20216;-87
2022/08/22 13:39:05;;;;;;;6.50;2.90;;;29.00;99.90;;;;;;5078936;28;20180;-88
2022/08/22 13:44:55;;;;;;;11.40;2.95;;;28.50;99.90;;;;;;5085685;28;20164;-87
2022/08/22 13:47:35;;;;;;;7.07;2.85;;;28.70;99.90;;;;;;5063550;28;20277;-87
2022/08/22 13:50:21;;;;;;;5.60;1.83;;;29.20;99.90;;;;;;5061279;28;20180;-87
2022/08/22 13:56:17;;;;;;;5.95;1.90;;;29.00;99.90;;;;;;5080136;28;20203;-87
2022/08/22 13:58:49;;;;;;;5.57;2.03;;;29.20;99.90;;;;;;5081215;28;20239;-88
2022/08/22 14:01:33;;;;;;;7.47;2.20;;;29.30;99.90;;;;;;5083204;28;20200;-87
2022/08/22 14:04:38;;;;;;;5.60;1.90;;;29.50;99.90;;;;;;5063719;28;20187;-87
2022/08/22 14:07:04;;;;;;;5.70;2.20;;;29.50;99.90;;;;;;5045264;28;20188;-87
2022/08/22 14:10:01;;;;;;;12.15;2.63;;;29.10;99.90;;;;;;5080760;28;20259;-86
2022/08/22 14:16:43;;;;;;;8.32;2.15;;;29.40;99.90;;;;;;5087009;28;20233;-87
2022/08/22 14:22:36;;;;;;;7.25;2.10;;;29.00;99.90;;;;;;4990341;28;20190;-87
2022/08/22 14:25:55;;;;;;;3.85;1.63;;;29.20;99.90;;;;;;4965697;28;20183;-86
2022/08/22 14:28:32;;;;;;;5.85;2.22;;;29.00;99.90;;;;;;5003414;28;20211;-87
2022/08/22 14:31:10;;;;;;;6.18;2.65;;;29.20;99.90;;;;;;5044210;28;20186;-87
2022/08/22 14:34:21;;;;;;;6.53;2.20;;;29.40;99.90;;;;;;5061355;28;20277;-87
2022/08/22 14:37:28;;;;;;;4.85;2.22;;;29.60;99.90;;;;;;5061096;28;20278;-86
2022/08/22 14:40:17;;;;;;;4.22;1.80;;;30.00;99.90;;;;;;5081987;28;20214;-86
2022/08/22 14:43:16;;;;;;;4.45;1.83;;;30.00;99.90;;;;;;5074277;28;20175;-86
2022/08/22 14:46:05;;;;;;;6.15;2.30;;;30.40;99.90;;;;;;5076247;28;20187;-86
2022/08/22 14:49:09;;;;;;;5.85;2.40;;;30.50;99.90;;;;;;5081946;28;20188;-87
2022/08/22 14:55:26;;;;;;;10.45;2.83;;;30.50;99.90;;;;;;5080113;28;20218;-87
2022/08/22 14:58:47;;;;;;;8.57;2.65;;;30.80;99.90;;;;;;5060725;28;20275;-87
2022/08/22 15:01:25;;;;;;;5.63;1.90;;;30.90;99.70;;;;;;5080649;28;20548;-86
2022/08/22 15:08:14;;;;;;;5.68;1.80;;;31.00;47.40;;;;;;5101816;28;20143;-90
2022/08/22 15:14:33;;;;;;;5.63;2.08;;;30.40;99.90;;;;;;5101200;28;20239;-86
2022/08/22 15:25:00;;;;;;;8.18;2.60;;;30.50;96.40;;;;;;5060559;28;20185;-87
2022/08/22 15:38:19;;;;;;;4.43;1.98;;;30.20;77.90;;;;;;5001143;28;20163;-87
2022/08/22 15:44:37;;;;;;;5.18;2.00;;;30.10;59.90;;;;;;5182582;22;20220;-87
2022/08/22 15:51:17;;;;;;;6.00;2.30;;;30.50;80.30;;;;;;5229500;22;20251;-87
2022/08/22 15:58:29;;;;;;;6.45;2.42;;;30.10;61.90;;;;;;5101307;28;20156;-87
2022/08/22 16:01:59;;;;;;;6.32;2.20;;;30.20;64.40;;;;;;5060007;28;20165;-85
2022/08/22 16:21:52;;;;;;;4.93;2.22;;;30.10;95.80;;;;;;4904655;29;20264;-85
2022/08/22 16:35:40;;;;;;;8.57;5.60;;;29.50;99.90;;;;;;4941945;28;20281;-86
2022/08/22 16:48:58;;;;;;;8.10;2.90;;;29.90;99.90;;;;;;5100532;28;20167;-86
2022/08/22 16:59:07;;;;;;;6.40;3.70;;;29.90;99.90;;;;;;5100143;28;20147;-87
2022/08/22 17:15:56;;;;;;;7.22;2.67;;;29.70;99.90;;;;;;5038657;28;20216;-87
2022/08/22 17:22:32;;;;;;;6.50;2.40;;;29.90;99.90;;;;;;5038685;28;20177;-87
2022/08/22 17:32:40;;;;;;;11.48;2.85;;;30.90;99.90;;;;;;5037823;28;20189;-86
2022/08/22 17:36:05;;;;;;;8.75;2.92;;;31.60;81.50;;;;;;5034638;28;20210;-87
2022/08/22 17:39:15;;;;;;;7.18;2.40;;;31.60;35.10;;;;;;5018565;28;20186;-86
2022/08/22 17:42:19;;;;;;;5.63;2.80;;;31.30;40.90;;;;;;5014086;28;20210;-86
2022/08/22 17:48:31;;;;;;;8.10;2.72;;;30.60;83.90;;;;;;5077655;28;20147;-86
2022/08/22 17:51:41;;;;;;;8.50;2.80;;;30.60;99.90;;;;;;5077427;28;20156;-87
2022/08/22 17:54:59;;;;;;;7.38;2.88;;;30.50;99.90;;;;;;5078227;28;20201;-86
2022/08/22 17:57:54;;;;;;;7.47;3.00;;;30.40;99.90;;;;;;5058957;28;20185;-87
2022/08/22 18:00:49;;;;;;;7.35;2.55;;;30.40;99.90;;;;;;5039314;28;20200;-88
2022/08/22 18:04:04;;;;;;;4.18;2.10;;;30.40;99.90;;;;;;5075236;28;20165;-87
2022/08/22 18:07:17;;;;;;;4.50;2.00;;;30.10;99.90;;;;;;5056798;28;20197;-87
2022/08/22 18:10:38;;;;;;;4.57;2.00;;;29.00;99.90;;;;;;5050225;28;20276;-87
2022/08/22 18:13:45;;;;;;;5.28;2.05;;;28.40;99.90;;;;;;5054970;28;20180;-86
2022/08/22 18:23:05;;;;;;;4.50;1.98;;;28.10;1.00;;;;;;5058706;28;20160;-87
2022/08/22 18:26:00;;;;;;;4.85;2.17;;;27.80;1.00;;;;;;5040719;28;20173;-86
2022/08/22 18:28:55;;;;;;;5.17;2.30;;;27.80;1.00;;;;;;5041937;28;20177;-87
2022/08/22 18:31:59;;;;;;;3.70;2.00;;;27.80;11.50;;;;;;5046159;28;20169;-86
2022/08/22 18:35:14;;;;;;;5.82;2.33;;;27.60;99.90;;;;;;5039338;28;20204;-86
2022/08/22 18:41:30;;;;;;;4.40;2.60;;;27.40;99.90;;;;;;5057318;28;20262;-86
2022/08/22 18:44:50;;;;;;;6.73;2.27;;;27.40;99.90;;;;;;5036857;28;20172;-86
2022/08/22 18:47:38;;;;;;;6.90;2.37;;;27.30;1.00;;;;;;5038240;28;20238;-87
2022/08/22 18:50:55;;;;;;;6.83;2.47;;;27.20;1.00;;;;;;5054599;28;20216;-87
2022/08/22 18:57:29;;;;;;;5.50;2.40;;;26.90;99.90;;;;;;5076680;28;20164;-86
2022/08/22 19:00:18;;;;;;;7.17;2.27;;;26.80;99.90;;;;;;5046180;28;20336;-86
2022/08/22 19:09:57;;;;;;;7.13;2.70;;;26.70;1.00;;;;;;5078209;28;20181;-86
2022/08/22 19:22:34;;;;;;;7.47;2.57;;;26.70;99.90;;;;;;5078082;28;20162;-87
2022/08/22 19:25:56;;;;;;;4.20;2.07;;;26.50;99.90;;;;;;5078054;28;20265;-85
2022/08/22 19:29:14;;;;;;;5.30;2.10;;;26.40;1.00;;;;;;5059262;28;20545;-86
2022/08/22 19:32:05;;;;;;;8.27;2.40;;;26.40;1.00;;;;;;5039353;28;20228;-86
2022/08/22 19:34:43;;;;;;;8.35;2.40;;;26.60;1.00;;;;;;5037990;28;20224;-86
2022/08/22 19:40:52;;;;;;;6.80;2.60;;;26.40;41.80;;;;;;5058176;28;20673;-87
2022/08/22 19:43:37;;;;;;;9.70;2.80;;;26.40;99.90;;;;;;5058055;28;20190;-87
2022/08/22 19:46:33;;;;;;;5.27;2.70;;;26.40;99.90;;;;;;5059076;28;20220;-87
2022/08/22 19:49:29;;;;;;;8.43;2.70;;;26.40;1.00;;;;;;5043999;28;20180;-86
2022/08/22 19:52:36;;;;;;;7.07;2.27;;;26.20;1.00;;;;;;5063584;28;20569;-87
2022/08/22 19:55:28;;;;;;;7.83;2.53;;;26.20;1.00;;;;;;5063084;28;20718;-87
2022/08/22 19:58:15;;;;;;;5.33;2.27;;;26.20;99.90;;;;;;5064882;28;20311;-84
2022/08/22 20:00:45;;;;;;;5.67;2.50;;;26.20;1.00;;;;;;5065926;28;20196;-82
2022/08/22 20:03:29;;;;;;;4.60;2.20;;;26.20;99.90;;;;;;5057121;28;20174;-84
2022/08/22 20:06:07;;;;;;;4.97;2.47;;;26.30;99.90;;;;;;5056707;28;20195;-84
2022/08/22 20:08:55;;;;;;;7.37;3.00;;;26.00;1.00;;;;;;5055725;28;20179;-82
2022/08/22 20:11:23;;;;;;;8.17;2.80;;;25.70;99.90;;;;;;5055580;28;20342;-83
2022/08/22 20:13:50;;;;;;;8.07;3.03;;;25.40;1.00;;;;;;5055850;28;20248;-83
2022/08/22 20:16:42;;;;;;;8.57;3.53;;;25.20;99.90;;;;;;5057044;28;20177;-82
2022/08/22 20:19:07;;;;;;;7.30;3.10;;;25.00;15.30;;;;;;5067878;28;20248;-83
2022/08/22 20:21:38;;;;;;;9.97;3.50;;;24.80;99.90;;;;;;5068628;28;20178;-84
2022/08/22 20:24:29;;;;;;;11.03;4.03;;;24.80;1.00;;;;;;5038145;28;20597;-82
2022/08/22 20:26:57;;;;;;;9.33;3.80;;;24.80;1.00;;;;;;5054609;28;20184;-83
2022/08/22 20:29:31;;;;;;;7.13;3.53;;;24.70;1.00;;;;;;5055592;28;20637;-81
2022/08/22 20:31:57;;;;;;;12.40;4.00;;;24.50;1.00;;;;;;5055204;28;20173;-82
2022/08/22 20:34:27;;;;;;;8.53;3.70;;;24.40;55.90;;;;;;5055197;28;20216;-82
2022/08/22 20:36:55;;;;;;;9.20;4.37;;;24.30;99.90;;;;;;5054974;28;20624;-82
2022/08/22 20:39:31;;;;;;;12.77;4.33;;;24.10;99.90;;;;;;5055159;28;20197;-82
2022/08/22 20:42:12;;;;;;;9.87;4.23;;;24.10;99.90;;;;;;5054325;28;20667;-82
2022/08/22 20:44:49;;;;;;;12.33;4.60;;;24.10;99.90;;;;;;5037622;28;20604;-82
2022/08/22 20:47:22;;;;;;;11.80;4.27;;;24.10;99.90;;;;;;5054863;28;20173;-82
2022/08/22 20:49:56;;;;;;;13.87;4.43;;;24.10;99.90;;;;;;5054686;28;20181;-82
2022/08/22 20:52:35;;;;;;;13.53;4.03;;;24.10;99.90;;;;;;5054010;28;20173;-82